Time;durP1;ratioP1;P1;durP2;ratioP2;P2;SDS_P1;SDS_P2;PMS_P1;PMS_P2;Temp;Humidity;BMP_temperature;BMP_pressure;BME280_temperature;BME280_humidity;BME280_pressure;Samples;Min_cycle;Max_cycle;Signal;HPM_P1;HPM_P2
2023/08/25 00:00:09;;;;;;;5.78;3.67;;;;;;;9.85;95.09;99012.41;4859338;29;20049;-59
2023/08/25 00:02:38;;;;;;;7.07;3.45;;;;;;;9.86;94.40;99017.50;4859318;29;20045;-59
2023/08/25 00:05:04;;;;;;;4.15;3.28;;;;;;;9.84;94.19;99014.28;4858985;29;20076;-60
2023/08/25 00:07:30;;;;;;;6.25;3.95;;;;;;;9.82;94.42;99011.06;4859059;29;20053;-59
2023/08/25 00:09:56;;;;;;;7.10;3.92;;;;;;;9.81;94.87;99014.75;4841722;29;20530;-58
2023/08/25 00:12:22;;;;;;;6.80;4.05;;;;;;;9.78;94.76;99012.59;4858657;29;20044;-58
2023/08/25 00:14:48;;;;;;;5.10;3.75;;;;;;;9.75;94.92;99010.44;4858898;29;20061;-58
2023/08/25 00:17:14;;;;;;;4.57;3.95;;;;;;;9.74;95.46;99008.84;4858925;29;20049;-59
2023/08/25 00:19:40;;;;;;;8.70;4.30;;;;;;;9.69;95.07;99011.41;4858812;29;20050;-59
2023/08/25 00:22:05;;;;;;;5.97;4.30;;;;;;;9.67;95.27;99006.31;4857898;29;20062;-58
2023/08/25 00:24:34;;;;;;;5.00;3.83;;;;;;;9.62;95.35;99003.63;4857644;29;20054;-60
2023/08/25 00:27:00;;;;;;;7.88;4.10;;;;;;;9.62;96.28;99000.16;4858755;29;20050;-57
2023/08/25 00:29:25;;;;;;;4.88;3.53;;;;;;;9.62;95.51;99008.91;4857606;29;20539;-59
2023/08/25 00:31:51;;;;;;;5.82;3.90;;;;;;;9.62;96.05;99002.78;4857489;29;20051;-59
2023/08/25 00:34:17;;;;;;;4.82;3.65;;;;;;;9.59;95.96;99001.47;4857462;29;20050;-58
2023/08/25 00:36:43;;;;;;;5.40;4.00;;;;;;;9.53;95.76;99010.34;4856744;29;20519;-58
2023/08/25 00:39:10;;;;;;;6.30;3.72;;;;;;;9.50;96.37;99001.06;4857526;29;20088;-58
2023/08/25 00:41:36;;;;;;;9.75;4.22;;;;;;;9.52;96.83;99006.09;4858512;29;20472;-58
2023/08/25 00:44:02;;;;;;;7.50;6.00;;;;;;;9.48;96.83;99008.41;4858852;29;20049;-58
2023/08/25 00:46:29;;;;;;;14.13;8.75;;;;;;;9.43;97.11;99008.31;4857706;29;20050;-59
2023/08/25 00:48:55;;;;;;;27.13;16.67;;;;;;;9.42;97.59;99011.22;4844837;29;20378;-59
2023/08/25 00:51:22;;;;;;;10.40;5.40;;;;;;;9.38;96.98;99012.72;4861952;29;20084;-59
2023/08/25 00:53:48;;;;;;;4.85;4.18;;;;;;;9.36;97.55;99014.81;4845542;29;20416;-58
2023/08/25 00:56:16;;;;;;;6.93;4.20;;;;;;;9.35;98.35;99018.47;4860754;29;20061;-58
2023/08/25 00:58:42;;;;;;;7.85;4.18;;;;;;;9.34;97.84;99020.34;4862267;29;20507;-58
2023/08/25 01:01:07;;;;;;;5.72;3.72;;;;;;;9.36;98.07;99025.41;4845362;29;20050;-58
2023/08/25 01:03:35;;;;;;;7.85;4.20;;;;;;;9.37;98.53;99024.34;4861806;29;20053;-59
2023/08/25 01:06:02;;;;;;;6.43;4.13;;;;;;;9.36;98.39;99020.91;4861785;29;20077;-58
2023/08/25 01:08:28;;;;;;;6.82;3.90;;;;;;;9.36;97.88;99022.75;4860691;29;20097;-58
2023/08/25 01:11:31;;;;;;;5.72;3.50;;;;;;;9.32;98.17;99017.13;4861728;29;20064;-59
2023/08/25 01:14:09;;;;;;;5.38;3.88;;;;;;;9.29;97.84;99021.06;4861120;29;20156;-59
2023/08/25 01:17:00;;;;;;;8.00;4.05;;;;;;;9.27;97.49;99024.97;4875941;29;20041;-58
2023/08/25 01:19:35;;;;;;;6.53;4.20;;;;;;;9.25;97.26;99027.84;4861258;29;20064;-58
2023/08/25 01:22:05;;;;;;;8.20;4.18;;;;;;;9.22;97.14;99022.25;4861613;29;20470;-58
2023/08/25 01:24:33;;;;;;;5.80;4.28;;;;;;;9.20;97.40;99032.25;4860381;29;20128;-58
2023/08/25 01:26:59;;;;;;;6.43;3.85;;;;;;;9.14;97.74;99020.78;4860196;29;20544;-58
2023/08/25 01:29:25;;;;;;;6.32;4.13;;;;;;;9.14;98.24;99033.19;4859680;29;20186;-59
2023/08/25 01:31:50;;;;;;;8.07;4.22;;;;;;;9.09;97.71;99025.97;4860079;29;20037;-57
2023/08/25 01:34:16;;;;;;;8.55;4.25;;;;;;;9.12;98.63;99029.97;4861255;29;20420;-59
2023/08/25 01:37:03;;;;;;;7.50;4.63;;;;;;;9.09;98.54;99028.63;4844648;29;20053;-58
2023/08/25 01:39:31;;;;;;;5.18;4.15;;;;;;;9.09;98.69;99025.97;4860098;29;20088;-58
2023/08/25 01:42:00;;;;;;;5.53;3.95;;;;;;;9.08;98.24;99019.06;4844679;29;20069;-58
2023/08/25 01:44:27;;;;;;;5.88;4.03;;;;;;;9.05;98.08;99019.53;4844786;29;20053;-59
2023/08/25 01:47:01;;;;;;;7.18;4.25;;;;;;;9.05;98.17;99027.47;4860099;29;20108;-59
2023/08/25 01:49:27;;;;;;;7.82;4.65;;;;;;;9.03;98.45;99027.72;4861009;29;20095;-59
2023/08/25 01:51:53;;;;;;;7.60;4.72;;;;;;;9.05;98.49;99025.63;4859974;29;20069;-58
2023/08/25 01:54:19;;;;;;;8.85;5.80;;;;;;;9.02;99.05;99020.81;4859718;29;20057;-59
2023/08/25 01:56:45;;;;;;;8.68;6.05;;;;;;;9.03;99.15;99029.53;4860907;29;20550;-58
2023/08/25 01:59:10;;;;;;;7.70;5.57;;;;;;;9.03;98.90;99030.38;4858872;29;20050;-58
2023/08/25 02:01:36;;;;;;;10.75;6.00;;;;;;;9.02;99.09;99026.09;4858511;29;20049;-58
2023/08/25 02:04:02;;;;;;;10.70;5.30;;;;;;;9.03;99.33;99024.25;4858147;29;20077;-60
2023/08/25 02:06:30;;;;;;;7.97;4.90;;;;;;;9.05;98.99;99028.28;4859163;29;20041;-58
2023/08/25 02:08:56;;;;;;;10.18;5.55;;;;;;;9.02;98.71;99025.31;4860965;29;20061;-60
2023/08/25 02:11:22;;;;;;;8.65;5.32;;;;;;;9.02;98.56;99025.31;4842737;29;20046;-58
2023/08/25 02:13:48;;;;;;;7.85;6.00;;;;;;;9.04;99.09;99023.25;4873646;29;20061;-58
2023/08/25 02:16:14;;;;;;;7.55;5.35;;;;;;;9.05;97.96;99032.75;4861106;29;20419;-58
2023/08/25 02:18:39;;;;;;;8.02;5.15;;;;;;;9.05;98.67;99025.63;4860854;29;20177;-58
2023/08/25 02:21:05;;;;;;;7.45;5.40;;;;;;;9.07;98.79;99030.69;4859351;29;20082;-59
2023/08/25 02:23:31;;;;;;;8.40;5.80;;;;;;;9.06;98.42;99027.25;4860796;29;20140;-58
2023/08/25 02:25:57;;;;;;;8.60;5.60;;;;;;;9.08;98.55;99029.66;4859418;29;20075;-60
2023/08/25 02:28:23;;;;;;;8.63;5.93;;;;;;;9.14;98.04;99025.25;4860695;29;20049;-58
2023/08/25 02:30:49;;;;;;;8.65;5.65;;;;;;;9.25;98.43;99027.06;4843869;29;20105;-61
2023/08/25 02:33:16;;;;;;;7.75;5.20;;;;;;;9.43;96.83;99033.97;4859182;29;20053;-59
2023/08/25 02:35:42;;;;;;;6.45;4.45;;;;;;;9.54;96.13;99030.47;4828628;29;20524;-60
2023/08/25 02:38:10;;;;;;;5.35;3.90;;;;;;;9.68;94.24;99031.78;4859088;29;20128;-57
2023/08/25 02:40:37;;;;;;;7.93;4.65;;;;;;;9.84;93.00;99024.06;4858923;29;20530;-58
2023/08/25 02:43:05;;;;;;;5.05;4.13;;;;;;;10.04;91.65;99026.22;4860280;29;20037;-57
2023/08/25 02:45:31;;;;;;;6.72;4.00;;;;;;;10.24;91.01;99035.25;4843588;29;20109;-58
2023/08/25 02:47:57;;;;;;;4.57;3.80;;;;;;;10.44;88.97;99033.94;4858803;29;20045;-58
2023/08/25 02:50:24;;;;;;;6.65;3.80;;;;;;;10.62;87.66;99035.53;4858767;29;20064;-58
2023/08/25 02:52:50;;;;;;;4.75;3.78;;;;;;;10.75;86.16;99039.66;4858794;29;20049;-58
2023/08/25 02:55:18;;;;;;;7.38;4.40;;;;;;;10.88;85.24;99037.44;4860232;29;20058;-59
2023/08/25 02:57:48;;;;;;;6.72;3.80;;;;;;;11.16;84.42;99040.13;4858698;29;20053;-58
2023/08/25 03:00:20;;;;;;;6.17;3.73;;;;;;;11.28;82.22;99046.09;4858651;29;20508;-57
2023/08/25 03:02:46;;;;;;;7.97;5.82;;;;;;;11.45;81.33;99049.44;4860061;29;20109;-58
2023/08/25 03:05:11;;;;;;;6.55;4.07;;;;;;;11.52;80.41;99041.25;4858524;29;20053;-59
2023/08/25 03:07:37;;;;;;;8.18;4.00;;;;;;;11.76;78.92;99045.19;4858359;29;20042;-58
2023/08/25 03:10:03;;;;;;;8.05;4.88;;;;;;;11.78;78.14;99037.78;4858002;29;20050;-59
2023/08/25 03:12:30;;;;;;;8.63;5.68;;;;;;;12.01;77.69;99041.16;4858061;29;20081;-57
2023/08/25 03:14:56;;;;;;;6.40;4.10;;;;;;;12.27;76.92;99056.22;4859798;29;20056;-57
2023/08/25 03:17:22;;;;;;;6.25;3.50;;;;;;;12.53;74.55;99058.22;4858436;29;20041;-58
2023/08/25 03:19:50;;;;;;;7.68;4.60;;;;;;;12.57;73.93;99067.28;4858408;29;20495;-60
2023/08/25 03:22:15;;;;;;;8.93;4.75;;;;;;;12.61;74.14;99065.72;4859427;29;20077;-59
2023/08/25 03:24:41;;;;;;;7.72;4.25;;;;;;;12.50;74.90;99059.56;4873622;29;20057;-59
2023/08/25 03:27:07;;;;;;;6.25;4.43;;;;;;;12.60;74.11;99061.47;4859346;29;20136;-59
2023/08/25 03:29:33;;;;;;;7.50;4.18;;;;;;;12.73;73.64;99055.66;4859405;29;20164;-59
2023/08/25 03:31:59;;;;;;;4.78;3.83;;;;;;;12.84;72.99;99057.31;4858011;29;20081;-58
2023/08/25 03:34:26;;;;;;;6.90;4.00;;;;;;;12.89;72.89;99060.00;4858200;29;20409;-59
2023/08/25 03:36:52;;;;;;;5.47;3.95;;;;;;;13.05;72.23;99060.84;4857972;29;20061;-59
2023/08/25 03:39:18;;;;;;;6.97;4.65;;;;;;;13.15;71.83;99058.22;4842536;29;20481;-58
2023/08/25 03:41:45;;;;;;;11.35;5.00;;;;;;;13.27;71.34;99060.69;4857858;29;20522;-58
2023/08/25 03:44:10;;;;;;;6.45;4.40;;;;;;;13.40;70.98;99067.34;4857838;29;20088;-58
2023/08/25 03:46:36;;;;;;;7.53;5.40;;;;;;;13.62;70.27;99070.59;4842322;29;20069;-58
2023/08/25 03:49:03;;;;;;;6.20;4.70;;;;;;;13.74;69.37;99065.00;4857990;29;20045;-59
2023/08/25 03:51:28;;;;;;;9.27;5.72;;;;;;;13.94;68.36;99076.72;4857779;29;20053;-58
2023/08/25 03:53:54;;;;;;;8.50;6.40;;;;;;;14.15;67.84;99083.66;4857516;29;20117;-60
2023/08/25 03:56:20;;;;;;;9.43;6.05;;;;;;;14.32;67.48;99080.69;4857553;29;20045;-61
2023/08/25 03:58:46;;;;;;;8.52;6.22;;;;;;;14.46;66.79;99076.38;4857814;29;20410;-58
2023/08/25 04:01:12;;;;;;;6.32;5.43;;;;;;;14.56;65.63;99080.97;4857809;29;20082;-60
2023/08/25 04:03:39;;;;;;;6.65;4.38;;;;;;;14.72;65.91;99084.38;4856782;29;20064;-59
2023/08/25 04:06:05;;;;;;;10.68;7.25;;;;;;;14.87;64.49;99084.31;4858865;29;20049;-58
2023/08/25 04:08:30;;;;;;;9.18;5.70;;;;;;;14.97;64.95;99086.13;4859229;29;20038;-58
2023/08/25 04:10:57;;;;;;;6.93;5.00;;;;;;;15.08;64.26;99089.56;4857762;29;20129;-59
2023/08/25 04:13:22;;;;;;;6.90;4.15;;;;;;;15.23;63.81;99081.47;4858711;29;20101;-58
2023/08/25 04:15:56;;;;;;;8.52;4.85;;;;;;;15.27;63.41;99087.88;4857610;29;20109;-59
2023/08/25 04:18:23;;;;;;;8.40;4.50;;;;;;;15.29;63.92;99087.59;4859010;29;20080;-58
2023/08/25 04:20:49;;;;;;;8.75;4.28;;;;;;;15.33;63.51;99084.09;4858691;29;20512;-58
2023/08/25 04:23:15;;;;;;;5.72;4.22;;;;;;;15.37;63.74;99092.34;4860477;29;20172;-59
2023/08/25 04:25:40;;;;;;;10.00;4.70;;;;;;;15.32;63.76;99090.50;4861270;29;20182;-59
2023/08/25 04:28:07;;;;;;;10.10;4.68;;;;;;;15.35;63.55;99089.97;4861272;29;20057;-57
2023/08/25 04:30:33;;;;;;;8.75;4.68;;;;;;;15.11;64.85;99087.13;4861155;29;20052;-59
2023/08/25 04:33:04;;;;;;;8.55;4.85;;;;;;;15.25;64.41;99090.00;4875977;29;20041;-58
2023/08/25 04:35:31;;;;;;;10.05;4.57;;;;;;;15.27;63.96;99093.22;4861135;29;20081;-59
2023/08/25 04:37:58;;;;;;;7.97;4.63;;;;;;;15.19;64.80;99094.59;4845707;29;20099;-59
2023/08/25 04:40:24;;;;;;;6.88;4.55;;;;;;;15.20;65.14;99098.03;4861061;29;20097;-60
2023/08/25 04:42:52;;;;;;;7.90;4.40;;;;;;;15.20;64.81;99096.16;4860838;29;20468;-59
2023/08/25 04:45:17;;;;;;;6.75;4.10;;;;;;;15.30;65.22;99100.69;4862396;29;20078;-59
2023/08/25 04:47:43;;;;;;;9.38;4.32;;;;;;;15.38;65.19;99107.28;4860795;29;20049;-58
2023/08/25 04:50:10;;;;;;;6.70;4.57;;;;;;;15.40;65.66;99110.50;4860761;29;20049;-59
2023/08/25 04:52:38;;;;;;;5.35;4.20;;;;;;;15.18;65.96;99109.00;4853277;29;20119;-59
2023/08/25 04:55:05;;;;;;;6.15;4.53;;;;;;;15.02;66.55;99106.69;4848458;29;20055;-59
2023/08/25 04:57:31;;;;;;;5.85;4.40;;;;;;;15.11;67.36;99105.81;4856801;29;20045;-59
2023/08/25 04:59:57;;;;;;;6.53;4.40;;;;;;;15.17;66.81;99103.94;4860698;29;20069;-57
2023/08/25 05:02:26;;;;;;;6.25;4.28;;;;;;;15.17;66.48;99110.06;4860079;29;20052;-57
2023/08/25 05:04:52;;;;;;;4.80;3.53;;;;;;;15.12;66.37;99104.78;4859383;29;20432;-60
2023/08/25 05:07:18;;;;;;;7.78;3.70;;;;;;;14.95;67.71;99106.97;4845059;29;20514;-60
2023/08/25 05:09:43;;;;;;;8.60;3.72;;;;;;;14.94;68.06;99108.03;4860466;29;20084;-60
2023/08/25 05:12:09;;;;;;;4.93;3.33;;;;;;;15.01;67.59;99113.88;4860269;29;20137;-59
2023/08/25 05:14:35;;;;;;;6.75;3.55;;;;;;;15.06;67.06;99116.53;4861184;29;20063;-57
2023/08/25 05:17:01;;;;;;;7.00;3.55;;;;;;;15.06;66.48;99102.38;4860244;29;20049;-59
2023/08/25 05:19:28;;;;;;;4.15;3.40;;;;;;;15.10;67.35;99109.56;4859584;29;20068;-58
2023/08/25 05:21:54;;;;;;;5.45;4.05;;;;;;;15.11;66.76;99108.50;4859791;29;20045;-59
2023/08/25 05:24:24;;;;;;;6.75;4.03;;;;;;;15.15;67.43;99111.44;4859905;29;20057;-59
2023/08/25 05:26:52;;;;;;;4.55;3.20;;;;;;;15.15;66.65;99101.56;4859987;29;20038;-62
2023/08/25 05:29:27;;;;;;;9.02;3.80;;;;;;;15.20;67.02;99112.19;4859995;29;20057;-60
2023/08/25 05:31:56;;;;;;;5.55;3.20;;;;;;;15.24;66.72;99114.34;4860075;29;20500;-58
2023/08/25 05:34:33;;;;;;;4.28;3.08;;;;;;;15.28;66.07;99113.50;4860556;29;20405;-60
2023/08/25 05:37:02;;;;;;;10.60;3.30;;;;;;;15.32;65.90;99116.41;4845065;29;20060;-61
2023/08/25 05:39:29;;;;;;;6.93;3.60;;;;;;;15.38;64.99;99115.31;4859811;29;20420;-60
2023/08/25 05:41:54;;;;;;;6.28;3.67;;;;;;;15.37;64.83;99122.53;4860597;29;20045;-61
2023/08/25 05:44:20;;;;;;;6.22;3.50;;;;;;;15.42;65.12;99116.38;4843273;29;20102;-62
2023/08/25 05:46:47;;;;;;;7.03;3.33;;;;;;;15.51;64.89;99121.94;4857595;29;20044;-59
2023/08/25 05:49:13;;;;;;;8.48;3.40;;;;;;;15.58;64.78;99123.22;4858409;29;20427;-62
2023/08/25 05:51:39;;;;;;;8.20;3.78;;;;;;;15.59;63.57;99124.03;4859031;29;20041;-59
2023/08/25 05:54:04;;;;;;;6.82;3.47;;;;;;;15.66;64.20;99125.31;4859402;29;20579;-60
2023/08/25 05:56:32;;;;;;;5.75;2.67;;;;;;;15.75;61.59;99130.09;4859582;29;20048;-60
2023/08/25 05:59:01;;;;;;;6.03;3.15;;;;;;;15.78;61.00;99129.53;4859731;29;20083;-60
2023/08/25 06:01:26;;;;;;;5.07;3.08;;;;;;;15.71;61.02;99123.72;4859336;29;20042;-61
2023/08/25 06:03:52;;;;;;;3.47;2.25;;;;;;;15.74;58.22;99123.97;4859955;29;20107;-60
2023/08/25 06:06:18;;;;;;;2.72;2.13;;;;;;;15.80;58.25;99128.19;4860319;29;20042;-60
2023/08/25 06:08:43;;;;;;;3.65;2.25;;;;;;;15.81;56.88;99127.09;4860990;29;20057;-60
2023/08/25 06:11:09;;;;;;;5.85;2.58;;;;;;;15.80;57.28;99133.53;4860647;29;20432;-61
2023/08/25 06:13:35;;;;;;;4.07;1.98;;;;;;;15.84;55.83;99128.44;4859057;29;20065;-60
2023/08/25 06:16:01;;;;;;;5.15;2.47;;;;;;;15.86;55.42;99124.41;4862411;29;20056;-60
2023/08/25 06:18:27;;;;;;;2.50;1.73;;;;;;;15.88;53.73;99121.44;4871137;29;20052;-61
2023/08/25 06:20:52;;;;;;;2.10;1.45;;;;;;;15.93;52.26;99131.31;4859847;29;20054;-61
2023/08/25 06:23:18;;;;;;;1.63;1.33;;;;;;;15.99;51.74;99130.19;4860535;29;20439;-61
2023/08/25 06:25:44;;;;;;;1.83;1.65;;;;;;;16.00;52.86;99129.09;4859833;29;20472;-62
2023/08/25 06:28:10;;;;;;;2.40;1.60;;;;;;;16.00;54.08;99123.75;4859121;29;20041;-60
2023/08/25 06:30:36;;;;;;;2.10;1.80;;;;;;;15.97;54.45;99127.81;4859844;29;20049;-59
2023/08/25 06:33:02;;;;;;;2.85;2.10;;;;;;;16.03;55.00;99125.88;4859922;29;20408;-59
2023/08/25 06:35:29;;;;;;;4.53;1.90;;;;;;;16.19;54.22;99123.88;4858460;29;20041;-61
2023/08/25 06:37:55;;;;;;;1.83;1.70;;;;;;;16.20;53.48;99128.94;4859534;29;20073;-58
2023/08/25 06:40:20;;;;;;;1.83;1.65;;;;;;;16.18;52.21;99117.75;4856904;29;20512;-61
2023/08/25 06:42:46;;;;;;;1.65;1.50;;;;;;;16.19;52.34;99123.88;4827714;29;20110;-60
2023/08/25 06:45:12;;;;;;;1.67;1.58;;;;;;;16.23;52.87;99125.69;4859052;29;20164;-59
2023/08/25 06:47:38;;;;;;;4.20;1.70;;;;;;;16.33;53.43;99122.16;4857549;29;20104;-59
2023/08/25 06:50:05;;;;;;;2.58;1.65;;;;;;;16.46;51.89;99129.50;4859671;29;20048;-58
2023/08/25 06:52:32;;;;;;;1.45;1.35;;;;;;;16.52;50.49;99123.03;4859321;29;20054;-58
2023/08/25 06:54:58;;;;;;;2.53;1.40;;;;;;;16.56;49.21;99123.28;4859491;29;20181;-55
2023/08/25 06:57:24;;;;;;;1.95;1.50;;;;;;;16.52;48.47;99125.72;4858625;29;20049;-59
2023/08/25 06:59:50;;;;;;;2.70;1.60;;;;;;;16.63;48.66;99125.63;4858304;29;20049;-59
2023/08/25 07:02:16;;;;;;;3.03;1.58;;;;;;;16.64;47.96;99132.56;4841773;29;20526;-60
2023/08/25 07:04:42;;;;;;;2.53;1.60;;;;;;;16.68;48.96;99129.03;4859590;29;20052;-59
2023/08/25 07:07:08;;;;;;;2.58;1.42;;;;;;;16.69;49.20;99127.16;4849383;29;20049;-60
2023/08/25 07:09:35;;;;;;;5.80;2.08;;;;;;;16.74;49.66;99140.50;4841425;29;20049;-62
2023/08/25 07:12:00;;;;;;;2.63;1.50;;;;;;;16.78;50.20;99136.19;4839604;29;20092;-59
2023/08/25 07:14:30;;;;;;;4.35;1.50;;;;;;;16.84;49.18;99139.63;4841482;29;20206;-57
2023/08/25 07:16:56;;;;;;;2.05;1.50;;;;;;;16.90;49.28;99135.78;4845629;29;20445;-57
2023/08/25 07:19:23;;;;;;;2.10;1.50;;;;;;;17.03;49.43;99130.56;4859578;29;20077;-61
2023/08/25 07:21:49;;;;;;;2.72;1.40;;;;;;;17.02;49.31;99139.66;4843194;29;20132;-58
2023/08/25 07:24:15;;;;;;;1.70;1.30;;;;;;;17.07;48.66;99138.03;4859522;29;20559;-59
2023/08/25 07:26:40;;;;;;;1.30;1.20;;;;;;;17.18;48.06;99139.50;4858319;29;20048;-57
2023/08/25 07:29:06;;;;;;;2.60;1.60;;;;;;;17.19;48.66;99141.09;4858373;29;20072;-58
2023/08/25 07:31:32;;;;;;;2.00;1.55;;;;;;;17.13;48.83;99131.50;4859197;29;20526;-59
2023/08/25 07:33:58;;;;;;;1.63;1.50;;;;;;;17.20;49.06;99140.78;4857166;29;20535;-60
2023/08/25 07:36:24;;;;;;;1.65;1.50;;;;;;;17.30;48.75;99147.13;4857710;29;20045;-61
2023/08/25 07:38:50;;;;;;;3.83;1.63;;;;;;;17.42;48.46;99140.25;4857809;29;20060;-60
2023/08/25 07:41:20;;;;;;;1.60;1.50;;;;;;;17.51;47.94;99143.06;4859027;29;20052;-59
2023/08/25 07:43:46;;;;;;;1.98;1.55;;;;;;;17.53;47.30;99146.28;4855566;29;20439;-57
2023/08/25 07:46:11;;;;;;;2.53;1.73;;;;;;;17.46;47.00;99145.81;4859294;29;20057;-59
2023/08/25 07:48:37;;;;;;;3.92;1.75;;;;;;;17.51;47.31;99140.41;4858803;29;20510;-58
2023/08/25 07:51:04;;;;;;;3.00;1.80;;;;;;;17.65;46.76;99145.84;4858054;29;20049;-58
2023/08/25 07:53:31;;;;;;;3.60;1.90;;;;;;;17.68;47.00;99154.09;4856988;29;20046;-58
2023/08/25 07:55:58;;;;;;;2.10;1.85;;;;;;;17.83;46.20;99147.75;4856614;29;20097;-57
2023/08/25 07:58:24;;;;;;;1.75;1.40;;;;;;;17.96;45.41;99143.53;4857610;29;20128;-59
2023/08/25 08:00:50;;;;;;;1.75;1.27;;;;;;;18.00;44.44;99144.56;4856753;29;20140;-56
2023/08/25 08:03:15;;;;;;;2.92;1.30;;;;;;;18.09;42.47;99140.13;4856349;29;20071;-60
2023/08/25 08:05:41;;;;;;;2.20;1.30;;;;;;;18.22;42.03;99143.13;4858644;29;20500;-58
2023/08/25 08:08:09;;;;;;;1.90;1.23;;;;;;;18.35;41.64;99142.34;4858648;29;20041;-57
2023/08/25 08:10:36;;;;;;;1.55;1.33;;;;;;;18.45;40.86;99142.19;4858564;29;20424;-57
2023/08/25 08:13:03;;;;;;;2.53;1.73;;;;;;;18.34;41.44;99141.56;4857755;29;20061;-61
2023/08/25 08:15:28;;;;;;;2.65;1.70;;;;;;;18.27;41.91;99143.84;4857376;29;20148;-59
2023/08/25 08:17:55;;;;;;;3.58;1.42;;;;;;;18.19;42.24;99135.66;4855475;29;20397;-58
2023/08/25 08:20:21;;;;;;;2.65;1.85;;;;;;;18.28;42.92;99139.28;4838540;29;20481;-60
2023/08/25 08:22:46;;;;;;;9.57;2.00;;;;;;;18.48;42.18;99133.56;4839708;29;20052;-59
2023/08/25 08:25:14;;;;;;;6.30;1.65;;;;;;;18.64;41.50;99136.75;4839891;29;20053;-59
2023/08/25 08:27:41;;;;;;;5.80;1.70;;;;;;;18.75;41.11;99138.19;4839441;29;20152;-59
2023/08/25 08:30:07;;;;;;;2.45;1.33;;;;;;;18.80;41.17;99131.94;4839942;29;20132;-59
2023/08/25 08:32:37;;;;;;;8.15;1.70;;;;;;;18.80;40.69;99140.00;4840065;29;20067;-59
2023/08/25 08:35:07;;;;;;;3.40;1.52;;;;;;;18.84;40.95;99135.59;4850113;29;20060;-58
2023/08/25 08:37:36;;;;;;;4.80;1.88;;;;;;;18.93;40.96;99141.88;4858778;29;20526;-59
2023/08/25 08:40:05;;;;;;;6.30;1.65;;;;;;;18.92;41.62;99136.81;4858195;29;20050;-60
2023/08/25 08:42:33;;;;;;;3.25;1.70;;;;;;;19.02;41.59;99145.44;4859218;29;20045;-60
2023/08/25 08:45:03;;;;;;;2.67;1.55;;;;;;;19.09;40.80;99145.06;4857171;29;20057;-59
2023/08/25 08:47:31;;;;;;;2.47;1.50;;;;;;;19.15;41.19;99146.56;4859340;29;20053;-59
2023/08/25 08:49:58;;;;;;;1.77;1.52;;;;;;;19.24;40.92;99144.75;4858925;29;20045;-58
2023/08/25 08:52:23;;;;;;;3.83;1.70;;;;;;;19.21;40.50;99142.66;4842391;29;20137;-58
2023/08/25 08:54:49;;;;;;;1.67;1.52;;;;;;;19.21;40.64;99153.41;4857374;29;20582;-58
2023/08/25 08:57:15;;;;;;;4.00;1.77;;;;;;;19.19;41.09;99155.59;4859046;29;20125;-56
2023/08/25 08:59:42;;;;;;;1.90;1.45;;;;;;;19.01;40.82;99159.19;4858607;29;20114;-58
2023/08/25 09:02:08;;;;;;;2.80;1.83;;;;;;;18.98;41.19;99151.72;4856873;29;20519;-56
2023/08/25 09:04:36;;;;;;;4.63;1.92;;;;;;;18.95;41.12;99149.66;4856594;29;20627;-60
2023/08/25 09:07:03;;;;;;;4.05;1.90;;;;;;;18.81;41.93;99152.31;4856860;29;20037;-59
2023/08/25 09:09:29;;;;;;;3.88;1.90;;;;;;;18.76;42.39;99155.88;4858464;29;20539;-59
2023/08/25 09:11:54;;;;;;;3.13;1.75;;;;;;;18.68;41.92;99155.75;4859675;29;20041;-60
2023/08/25 09:14:29;;;;;;;1.60;1.50;;;;;;;18.69;42.77;99150.09;4861269;29;20513;-61
2023/08/25 09:16:56;;;;;;;3.58;1.77;;;;;;;18.74;42.39;99146.56;4860927;29;20037;-59
2023/08/25 09:19:22;;;;;;;1.80;1.58;;;;;;;18.89;42.16;99143.56;4861445;29;20049;-57
2023/08/25 09:21:48;;;;;;;2.70;1.52;;;;;;;19.15;41.25;99146.56;4860812;29;20049;-61
2023/08/25 09:24:19;;;;;;;4.07;2.28;;;;;;;19.50;40.50;99142.31;4860186;29;20053;-59
2023/08/25 09:26:46;;;;;;;2.60;2.08;;;;;;;19.75;39.59;99145.56;4860717;29;20543;-58
2023/08/25 09:29:11;;;;;;;3.60;1.80;;;;;;;20.03;39.03;99148.97;4844675;29;20046;-61
2023/08/25 09:31:37;;;;;;;10.90;2.40;;;;;;;20.27;38.15;99145.16;4860217;29;20053;-59
2023/08/25 09:34:05;;;;;;;1.98;1.38;;;;;;;20.43;36.92;99146.34;4861130;29;20049;-60
2023/08/25 09:36:31;;;;;;;2.17;1.60;;;;;;;20.65;37.32;99148.25;4859940;29;20041;-60
2023/08/25 09:38:57;;;;;;;3.00;1.70;;;;;;;20.89;37.28;99139.00;4861252;29;20050;-59
2023/08/25 09:41:27;;;;;;;3.30;1.88;;;;;;;20.80;37.62;99138.97;4853948;29;20061;-59
2023/08/25 09:43:59;;;;;;;;;;;;;;;20.68;37.91;99136.88;4853655;29;20181;-59
2023/08/25 09:46:30;;;;;;;2.13;1.92;;;;;;;20.19;38.59;99134.03;4854659;29;19976;-56
2023/08/25 09:49:04;;;;;;;1.75;1.52;;;;;;;20.20;37.10;99137.50;4841290;29;20061;-58
2023/08/25 09:51:35;;;;;;;2.22;1.98;;;;;;;20.13;36.82;99134.47;4842276;29;20042;-61
2023/08/25 09:54:08;;;;;;;3.65;1.60;;;;;;;19.91;37.92;99135.25;4825713;29;20160;-59
2023/08/25 09:56:34;;;;;;;2.03;1.50;;;;;;;19.58;40.10;99143.47;4841923;29;20085;-60
2023/08/25 09:59:02;;;;;;;2.17;1.50;;;;;;;19.27;40.03;99129.94;4858060;29;20057;-59
2023/08/25 10:01:28;;;;;;;1.58;1.48;;;;;;;19.10;40.41;99124.38;4858321;29;20041;-62
2023/08/25 10:03:53;;;;;;;2.13;1.55;;;;;;;19.02;40.82;99128.53;4840312;29;20057;-61
2023/08/25 10:06:20;;;;;;;1.92;1.50;;;;;;;18.84;41.11;99125.66;4840457;29;20046;-61
2023/08/25 10:08:47;;;;;;;1.60;1.50;;;;;;;18.76;42.83;99130.91;4840775;29;20079;-62
2023/08/25 10:11:13;;;;;;;2.20;1.50;;;;;;;18.87;42.33;99132.31;4841088;29;20053;-59
2023/08/25 10:13:39;;;;;;;1.45;1.35;;;;;;;19.17;42.02;99130.13;4841037;29;20101;-60
2023/08/25 10:16:06;;;;;;;1.52;1.42;;;;;;;19.51;40.13;99132.38;4859101;29;20049;-62
2023/08/25 10:18:37;;;;;;;1.95;1.75;;;;;;;19.79;39.19;99137.69;4860468;29;20385;-57
2023/08/25 10:21:03;;;;;;;2.38;1.60;;;;;;;19.86;38.94;99138.84;4859929;29;20546;-60
2023/08/25 10:23:30;;;;;;;2.53;1.65;;;;;;;20.01;38.73;99135.00;4858934;29;20140;-60
2023/08/25 10:25:55;;;;;;;4.50;2.00;;;;;;;20.17;38.27;99130.84;4843713;29;20052;-60
2023/08/25 10:28:21;;;;;;;2.60;1.85;;;;;;;20.33;37.80;99136.66;4858861;29;20061;-60
2023/08/25 10:30:47;;;;;;;2.38;1.80;;;;;;;20.40;37.48;99136.19;4858994;29;20041;-62
2023/08/25 10:33:13;;;;;;;2.83;1.80;;;;;;;20.50;36.59;99140.53;4860075;29;20489;-62
2023/08/25 10:35:43;;;;;;;3.55;1.90;;;;;;;20.49;36.77;99141.63;4860223;29;20388;-64
2023/08/25 10:38:18;;;;;;;;;;;;;;;20.50;37.22;99135.97;4843563;29;20049;-60
2023/08/25 10:40:50;;;;;;;4.65;1.65;;;;;;;20.45;36.23;99138.78;4843339;29;19928;-61
2023/08/25 10:43:26;;;;;;;2.20;1.77;;;;;;;20.26;36.58;99140.88;4859588;29;20056;-60
2023/08/25 10:45:52;;;;;;;3.22;1.70;;;;;;;20.20;37.29;99132.13;4859745;29;20050;-59
2023/08/25 10:48:20;;;;;;;2.08;1.67;;;;;;;20.14;36.91;99130.66;4859810;29;20060;-60
2023/08/25 10:50:47;;;;;;;6.38;3.05;;;;;;;20.26;37.45;99125.50;4859475;29;20077;-60
2023/08/25 10:53:36;;;;;;;3.50;2.30;;;;;;;20.37;36.89;99132.22;4859666;29;20089;-61
2023/08/25 10:56:13;;;;;;;2.40;2.20;;;;;;;20.50;36.85;99129.75;4858549;29;20110;-60
2023/08/25 10:58:39;;;;;;;2.55;1.90;;;;;;;20.57;36.41;99130.16;4857802;29;20034;-58
2023/08/25 11:01:05;;;;;;;2.05;1.75;;;;;;;20.41;36.59;99127.84;4859974;29;20147;-61
2023/08/25 11:04:06;;;;;;;2.67;1.92;;;;;;;20.30;36.58;99118.44;4859137;29;20359;-60
2023/08/25 11:06:42;;;;;;;4.47;2.50;;;;;;;20.29;36.56;99124.88;4858103;29;20139;-59
2023/08/25 11:09:35;;;;;;;4.35;2.33;;;;;;;20.09;36.88;99117.31;4839510;29;20513;-60
2023/08/25 11:12:03;;;;;;;8.35;3.47;;;;;;;20.09;37.93;99114.63;4840293;29;20056;-61
2023/08/25 11:14:34;;;;;;;4.85;2.50;;;;;;;19.91;37.39;99117.22;4847731;29;20101;-59
2023/08/25 11:17:05;;;;;;;4.15;2.15;;;;;;;19.80;37.43;99112.41;4857400;29;20502;-60
2023/08/25 11:19:32;;;;;;;2.38;1.52;;;;;;;19.72;38.30;99112.00;4857411;29;20526;-58
2023/08/25 11:22:05;;;;;;;2.95;2.10;;;;;;;19.80;38.15;99112.41;4858795;29;20050;-58
2023/08/25 11:24:32;;;;;;;4.47;2.03;;;;;;;19.77;38.03;99118.38;4857395;29;20045;-56
2023/08/25 11:27:11;;;;;;;2.10;1.58;;;;;;;19.73;38.56;99118.19;4856582;29;20124;-57
2023/08/25 11:29:39;;;;;;;3.75;1.70;;;;;;;19.72;39.03;99125.47;4857244;29;20037;-56
2023/08/25 11:32:05;;;;;;;2.88;1.55;;;;;;;19.77;39.35;99115.69;4841747;29;20530;-59
2023/08/25 11:34:32;;;;;;;3.58;2.10;;;;;;;19.87;38.95;99110.84;4872287;29;20101;-60
2023/08/25 11:36:58;;;;;;;3.35;2.20;;;;;;;20.03;39.03;99115.84;4857982;29;20105;-58